createdAt,value
2023-05-02T00:00:41.752Z,54
2023-05-02T00:01:55.970Z,53
2023-05-02T00:03:10.093Z,49
2023-05-02T00:04:24.199Z,46
2023-05-02T00:06:52.523Z,51
2023-05-02T00:08:06.549Z,49
2023-05-02T00:09:20.663Z,57
2023-05-02T00:11:48.976Z,53
2023-05-02T00:13:03.099Z,49
2023-05-02T00:14:17.252Z,66
2023-05-02T00:16:45.629Z,62
2023-05-02T00:17:59.718Z,55
2023-05-02T00:19:13.745Z,46
2023-05-02T00:21:42.020Z,67
2023-05-02T00:22:56.148Z,60
2023-05-02T00:24:10.258Z,108
2023-05-02T00:26:38.574Z,46
2023-05-02T00:27:52.705Z,44
2023-05-02T00:29:06.898Z,46
2023-05-02T00:30:20.924Z,47
2023-05-02T00:32:49.399Z,46
2023-05-02T00:34:03.381Z,45
2023-05-02T00:35:17.482Z,43
2023-05-02T00:37:45.879Z,43
2023-05-02T00:38:59.914Z,51
2023-05-02T00:40:14.016Z,44
2023-05-02T00:42:42.277Z,41
2023-05-02T00:43:56.429Z,40
2023-05-02T00:45:10.536Z,41
2023-05-02T00:46:24.769Z,42
2023-05-02T00:48:52.966Z,41
2023-05-02T00:50:07.140Z,44
2023-05-02T00:51:21.211Z,41
2023-05-02T00:53:49.565Z,43
2023-05-02T00:55:03.629Z,50
2023-05-02T00:56:17.787Z,46
2023-05-02T00:58:46.096Z,44
2023-05-02T01:00:00.515Z,46
2023-05-02T01:01:14.352Z,43
2023-05-02T01:03:42.841Z,48
2023-05-02T01:04:56.683Z,47
2023-05-02T01:06:10.826Z,58
2023-05-02T01:07:24.940Z,53
2023-05-02T01:09:53.258Z,54
2023-05-02T01:11:07.477Z,63
2023-05-02T01:12:21.775Z,67
2023-05-02T01:14:49.784Z,65
2023-05-02T01:16:03.957Z,68
2023-05-02T01:17:18.186Z,53
2023-05-02T01:19:46.346Z,51
2023-05-02T01:21:00.415Z,73
2023-05-02T01:22:14.611Z,52
2023-05-02T01:24:43.018Z,71
2023-05-02T01:25:56.994Z,52
2023-05-02T01:27:11.082Z,60
2023-05-02T01:28:25.509Z,80
2023-05-02T01:30:53.508Z,50
2023-05-02T01:32:07.817Z,67
2023-05-02T01:33:21.770Z,52
2023-05-02T01:35:50.024Z,53
2023-05-02T01:37:04.150Z,59
2023-05-02T01:38:18.492Z,61
2023-05-02T01:40:46.570Z,55
2023-05-02T01:42:00.692Z,55
2023-05-02T01:43:14.826Z,53
2023-05-02T01:45:43.264Z,58
2023-05-02T01:46:57.290Z,67
2023-05-02T01:48:11.355Z,63
2023-05-02T01:49:25.504Z,54
2023-05-02T01:51:53.792Z,60
2023-05-02T01:53:07.950Z,63
2023-05-02T01:54:21.982Z,65
2023-05-02T01:56:50.278Z,51
2023-05-02T01:58:04.428Z,54
2023-05-02T01:59:18.550Z,74
2023-05-02T02:01:46.942Z,51
2023-05-02T02:03:00.976Z,51
2023-05-02T02:04:15.146Z,57
2023-05-02T02:06:43.433Z,59
2023-05-02T02:07:57.488Z,63
2023-05-02T02:09:11.610Z,56
2023-05-02T02:11:39.901Z,52
2023-05-02T02:12:54.016Z,54
2023-05-02T02:14:08.156Z,52
2023-05-02T02:15:22.291Z,52
2023-05-02T02:17:50.617Z,58
2023-05-02T02:19:04.757Z,55
2023-05-02T02:20:18.812Z,52
2023-05-02T02:22:47.089Z,55
2023-05-02T02:24:01.204Z,57
2023-05-02T02:25:15.379Z,65
2023-05-02T02:27:43.639Z,55
2023-05-02T02:28:57.837Z,57
2023-05-02T02:30:11.958Z,53
2023-05-02T02:32:40.182Z,59
2023-05-02T02:33:54.289Z,54
2023-05-02T02:35:08.417Z,62
2023-05-02T02:36:22.589Z,57
2023-05-02T02:38:50.806Z,61
2023-05-02T02:40:05.018Z,57
2023-05-02T02:41:19.131Z,57
2023-05-02T02:43:47.408Z,57
2023-05-02T02:45:01.471Z,56
2023-05-02T02:46:15.753Z,57
2023-05-02T02:48:43.871Z,57
2023-05-02T02:49:58.274Z,58
2023-05-02T02:51:12.168Z,57
2023-05-02T02:53:40.384Z,59
2023-05-02T02:54:54.627Z,63
2023-05-02T02:56:08.781Z,59
2023-05-02T02:57:22.814Z,63
2023-05-02T02:59:51.048Z,58
2023-05-02T03:01:05.336Z,60
2023-05-02T03:02:19.462Z,141
2023-05-02T03:04:47.629Z,61
2023-05-02T03:06:01.797Z,65
2023-05-02T03:07:15.910Z,80
2023-05-02T03:09:44.131Z,76
2023-05-02T03:10:58.338Z,89
2023-05-02T03:12:12.399Z,82
2023-05-02T03:13:26.569Z,72
2023-05-02T03:14:40.644Z,70
2023-05-02T03:15:55.113Z,71
2023-05-02T03:17:09.017Z,70
2023-05-02T03:18:23.122Z,71
2023-05-02T03:20:51.410Z,74
2023-05-02T03:22:05.567Z,72
2023-05-02T03:23:19.695Z,72
2023-05-02T03:25:47.993Z,80
2023-05-02T03:27:02.022Z,73
2023-05-02T03:28:16.252Z,76
2023-05-02T03:30:44.430Z,69
2023-05-02T03:31:58.599Z,84
2023-05-02T03:33:12.681Z,71
2023-05-02T03:35:40.916Z,69
2023-05-02T03:36:55.116Z,68
2023-05-02T03:38:09.251Z,68
2023-05-02T03:39:23.346Z,64
2023-05-02T03:41:51.620Z,64
2023-05-02T03:43:05.801Z,61
2023-05-02T03:44:19.916Z,60
2023-05-02T03:46:48.190Z,61
2023-05-02T03:48:02.293Z,60
2023-05-02T03:49:16.402Z,61
2023-05-02T03:51:44.679Z,73
2023-05-02T03:52:58.823Z,55
2023-05-02T03:54:12.947Z,54
2023-05-02T03:56:42.794Z,54
2023-05-02T03:57:55.453Z,54
2023-05-02T03:59:09.479Z,58
2023-05-02T04:00:23.634Z,56
2023-05-02T04:02:52.096Z,53
2023-05-02T04:04:06.126Z,55
2023-05-02T04:05:20.191Z,53
2023-05-02T04:07:48.446Z,53
2023-05-02T04:09:02.555Z,50
2023-05-02T04:10:16.720Z,51
2023-05-02T04:12:44.944Z,50
2023-05-02T04:13:59.105Z,51
2023-05-02T04:15:13.197Z,49
2023-05-02T04:17:41.604Z,49
2023-05-02T04:18:55.684Z,49
2023-05-02T04:20:09.832Z,49
2023-05-02T04:21:23.889Z,49
2023-05-02T04:23:52.114Z,49
2023-05-02T04:25:06.275Z,51
2023-05-02T04:26:20.383Z,50
2023-05-02T04:28:48.721Z,49
2023-05-02T04:30:03.137Z,49
2023-05-02T04:31:16.982Z,50
2023-05-02T04:33:45.219Z,49
2023-05-02T04:34:59.379Z,48
2023-05-02T04:36:13.526Z,46
2023-05-02T04:37:27.657Z,49
2023-05-02T04:38:41.698Z,48
2023-05-02T04:39:55.853Z,46
2023-05-02T04:41:10.080Z,48
2023-05-02T04:42:24.161Z,48
2023-05-02T04:44:52.395Z,49
2023-05-02T04:46:06.567Z,47
2023-05-02T04:47:20.693Z,48
2023-05-02T04:49:49.020Z,48
2023-05-02T04:51:03.077Z,49
2023-05-02T04:52:17.297Z,49
2023-05-02T04:54:45.458Z,48
2023-05-02T04:55:59.626Z,48
2023-05-02T04:57:13.717Z,47
2023-05-02T04:59:42.007Z,46
2023-05-02T05:00:56.142Z,47
2023-05-02T05:02:10.330Z,47
2023-05-02T05:03:24.496Z,46
2023-05-02T05:05:52.671Z,47
2023-05-02T05:07:06.857Z,48
2023-05-02T05:08:20.911Z,47
2023-05-02T05:10:49.291Z,47
2023-05-02T05:12:03.314Z,48
2023-05-02T05:13:17.532Z,48
2023-05-02T05:15:45.908Z,48
2023-05-02T05:16:59.978Z,47
2023-05-02T05:18:14.040Z,46
2023-05-02T05:20:50.423Z,45
2023-05-02T05:22:04.592Z,47
2023-05-02T05:23:18.745Z,48
2023-05-02T05:25:47.018Z,47
2023-05-02T05:27:01.111Z,48
2023-05-02T05:28:15.280Z,47
2023-05-02T05:30:43.556Z,47
2023-05-02T05:31:57.800Z,47
2023-05-02T05:33:11.837Z,47
2023-05-02T05:35:40.144Z,50
2023-05-02T05:36:54.244Z,48
2023-05-02T05:38:08.309Z,47
2023-05-02T05:39:22.439Z,47
2023-05-02T05:41:50.680Z,47
2023-05-02T05:43:04.827Z,47
2023-05-02T05:44:19.074Z,47
2023-05-02T05:46:47.292Z,48
2023-05-02T05:48:01.442Z,47
2023-05-02T05:49:15.515Z,47
2023-05-02T05:51:43.779Z,45
2023-05-02T05:52:57.932Z,47
2023-05-02T05:54:12.048Z,45
2023-05-02T05:56:40.299Z,46
2023-05-02T05:57:54.494Z,45
2023-05-02T05:59:08.569Z,46
2023-05-02T06:00:22.712Z,44
2023-05-02T06:02:51.042Z,43
2023-05-02T06:04:05.381Z,45
2023-05-02T06:05:19.248Z,40
2023-05-02T06:07:47.585Z,45
2023-05-02T06:09:01.665Z,45
2023-05-02T06:10:15.866Z,45
2023-05-02T06:12:44.037Z,44
2023-05-02T06:13:58.276Z,46
2023-05-02T06:15:12.301Z,45
2023-05-02T06:17:40.588Z,45
2023-05-02T06:18:54.836Z,47
2023-05-02T06:20:08.865Z,45
2023-05-02T06:21:22.986Z,46
2023-05-02T06:23:51.268Z,44
2023-05-02T06:25:05.407Z,45
2023-05-02T06:26:19.579Z,45
2023-05-02T06:28:47.829Z,47
2023-05-02T06:30:02.374Z,45
2023-05-02T06:31:16.077Z,44
2023-05-02T06:33:44.268Z,40
2023-05-02T06:34:58.516Z,43
2023-05-02T06:36:12.594Z,44
2023-05-02T06:38:40.825Z,40
2023-05-02T06:39:55.073Z,42
2023-05-02T06:41:09.292Z,42
2023-05-02T06:42:23.220Z,44
2023-05-02T06:44:51.475Z,43
2023-05-02T06:46:05.682Z,43
2023-05-02T06:47:19.834Z,46
2023-05-02T06:49:48.054Z,45
2023-05-02T06:51:02.170Z,43
2023-05-02T06:52:16.304Z,43
2023-05-02T06:54:44.545Z,44
2023-05-02T06:55:58.733Z,43
2023-05-02T06:57:12.859Z,43
2023-05-02T06:59:41.140Z,44
2023-05-02T07:00:55.371Z,43
2023-05-02T07:02:09.456Z,44
2023-05-02T07:03:23.482Z,43
2023-05-02T07:05:51.752Z,41
2023-05-02T07:07:05.882Z,43
2023-05-02T07:08:20.031Z,41
2023-05-02T07:10:48.302Z,39
2023-05-02T07:12:04.036Z,40
2023-05-02T07:13:16.555Z,37
2023-05-02T07:15:44.837Z,38
2023-05-02T07:16:59.127Z,38
2023-05-02T07:18:13.158Z,38
2023-05-02T07:20:41.317Z,37
2023-05-02T07:21:55.562Z,35
2023-05-02T07:23:09.618Z,35
2023-05-02T07:24:23.747Z,33
2023-05-02T07:26:52.020Z,37
2023-05-02T07:28:06.150Z,38
2023-05-02T07:29:20.248Z,37
2023-05-02T07:31:48.588Z,37
2023-05-02T07:33:02.754Z,38
2023-05-02T07:34:16.923Z,38
2023-05-02T07:36:45.093Z,38
2023-05-02T07:37:59.330Z,37
2023-05-02T07:39:13.365Z,37
2023-05-02T07:41:41.613Z,37
2023-05-02T07:42:55.767Z,37
2023-05-02T07:44:09.919Z,37
2023-05-02T07:45:24.020Z,37
2023-05-02T07:47:52.332Z,35
2023-05-02T07:49:06.422Z,38
2023-05-02T07:50:20.554Z,35
2023-05-02T07:52:48.880Z,32
2023-05-02T07:54:02.975Z,32
2023-05-02T07:55:17.164Z,31
2023-05-02T07:57:45.351Z,27
2023-05-02T07:58:59.579Z,28
2023-05-02T08:00:13.633Z,27
2023-05-02T08:02:42.073Z,28
2023-05-02T08:03:56.250Z,29
2023-05-02T08:05:10.311Z,28
2023-05-02T08:06:24.327Z,28
2023-05-02T08:08:52.587Z,27
2023-05-02T08:10:06.717Z,29
2023-05-02T08:11:21.966Z,29
2023-05-02T08:13:49.114Z,29
2023-05-02T08:15:03.235Z,29
2023-05-02T08:16:17.505Z,29
2023-05-02T08:18:45.697Z,30
2023-05-02T08:20:01.068Z,30
2023-05-02T08:21:13.886Z,30
2023-05-02T08:23:42.143Z,28
2023-05-02T08:24:56.274Z,30
2023-05-02T08:26:10.385Z,29
2023-05-02T08:27:24.540Z,30
2023-05-02T08:29:52.806Z,30
2023-05-02T08:31:07.132Z,29
2023-05-02T08:32:21.042Z,31
2023-05-02T08:34:49.362Z,30
2023-05-02T08:36:03.471Z,30
2023-05-02T08:37:17.629Z,29
2023-05-02T08:39:45.881Z,27
2023-05-02T08:41:00.015Z,27
2023-05-02T08:42:14.177Z,26
2023-05-02T08:44:42.406Z,20
2023-05-02T08:45:56.542Z,18
2023-05-02T08:47:10.867Z,16
2023-05-02T08:48:24.884Z,16
2023-05-02T08:50:53.092Z,15
2023-05-02T08:52:07.286Z,15
2023-05-02T08:53:21.317Z,13
2023-05-02T08:55:49.609Z,13
2023-05-02T08:57:03.736Z,12
2023-05-02T08:58:17.978Z,12
2023-05-02T09:00:46.166Z,12
2023-05-02T09:02:00.264Z,12
2023-05-02T09:03:14.409Z,12
2023-05-02T09:05:42.675Z,11
2023-05-02T09:06:56.797Z,11
2023-05-02T09:08:10.894Z,11
2023-05-02T09:09:25.099Z,10
2023-05-02T09:11:53.326Z,11
2023-05-02T09:13:07.521Z,11
2023-05-02T09:14:21.717Z,11
2023-05-02T09:16:49.898Z,12
2023-05-02T09:18:04.020Z,12
2023-05-02T09:19:18.217Z,12
2023-05-02T09:21:46.486Z,12
2023-05-02T09:23:00.516Z,11
2023-05-02T09:24:14.765Z,12
2023-05-02T09:26:43.068Z,12
2023-05-02T09:27:57.054Z,12
2023-05-02T09:29:11.173Z,12
2023-05-02T09:30:25.345Z,11
2023-05-02T09:32:53.599Z,12
2023-05-02T09:34:07.705Z,11
2023-05-02T09:35:21.845Z,10
2023-05-02T09:37:50.184Z,11
2023-05-02T09:39:04.249Z,11
2023-05-02T09:40:18.461Z,11
2023-05-02T09:42:46.726Z,11
2023-05-02T09:44:00.762Z,11
2023-05-02T09:45:14.913Z,11
2023-05-02T09:47:43.412Z,12
2023-05-02T09:48:57.354Z,12
2023-05-02T09:50:11.437Z,12
2023-05-02T09:51:25.680Z,12
2023-05-02T09:53:53.837Z,12
2023-05-02T09:55:07.983Z,12
2023-05-02T09:56:23.363Z,12
2023-05-02T09:58:50.349Z,11
2023-05-02T10:00:04.525Z,12
2023-05-02T10:01:18.699Z,11
2023-05-02T10:03:46.959Z,10
2023-05-02T10:05:01.244Z,10
2023-05-02T10:06:15.538Z,10
2023-05-02T10:08:43.645Z,10
2023-05-02T10:09:57.609Z,10
2023-05-02T10:11:11.743Z,10
2023-05-02T10:13:39.984Z,11
2023-05-02T10:14:54.193Z,12
2023-05-02T10:16:08.295Z,12
2023-05-02T10:17:22.351Z,14
2023-05-02T10:19:50.710Z,16
2023-05-02T10:21:04.788Z,18
2023-05-02T10:22:19.050Z,19
2023-05-02T10:24:47.198Z,20
2023-05-02T10:26:01.316Z,21
2023-05-02T10:27:15.484Z,22
2023-05-02T10:29:43.830Z,23
2023-05-02T10:30:57.896Z,22
2023-05-02T10:32:11.964Z,22
2023-05-02T10:34:40.200Z,22
2023-05-02T10:35:54.385Z,22
2023-05-02T10:37:08.579Z,22
2023-05-02T10:38:24.635Z,21
2023-05-02T10:40:50.883Z,17
2023-05-02T10:42:05.135Z,15
2023-05-02T10:43:19.173Z,15
2023-05-02T10:44:33.294Z,13
2023-05-02T10:45:47.564Z,11
2023-05-02T10:47:01.736Z,10
2023-05-02T10:48:15.808Z,8
2023-05-02T10:50:44.019Z,6
2023-05-02T10:51:58.097Z,6
2023-05-02T10:53:12.230Z,5
2023-05-02T10:55:40.487Z,5
2023-05-02T10:56:54.669Z,5
2023-05-02T10:58:08.857Z,6
2023-05-02T10:59:22.895Z,5
2023-05-02T11:01:51.190Z,5
2023-05-02T11:03:05.495Z,5
2023-05-02T11:04:19.420Z,6
2023-05-02T11:06:47.810Z,6
2023-05-02T11:08:01.827Z,6
2023-05-02T11:09:16.058Z,6
2023-05-02T11:11:44.225Z,6
2023-05-02T11:12:58.462Z,7
2023-05-02T11:14:13.929Z,7
2023-05-02T11:16:40.831Z,7
2023-05-02T11:17:54.955Z,6
2023-05-02T11:19:09.032Z,7
2023-05-02T11:20:23.163Z,8
2023-05-02T11:22:51.394Z,8
2023-05-02T11:24:05.548Z,7
2023-05-02T11:25:19.740Z,7
2023-05-02T11:27:47.962Z,6
2023-05-02T11:29:02.091Z,6
2023-05-02T11:30:16.239Z,7
2023-05-02T11:32:44.558Z,6
2023-05-02T11:33:58.624Z,6
2023-05-02T11:35:12.763Z,7
2023-05-02T11:37:41.086Z,7
2023-05-02T11:38:55.273Z,8
2023-05-02T11:40:09.302Z,7
2023-05-02T11:41:23.436Z,8
2023-05-02T11:43:51.697Z,8
2023-05-02T11:45:05.838Z,7
2023-05-02T11:46:19.987Z,10
2023-05-02T11:48:48.211Z,9
2023-05-02T11:50:02.364Z,8
2023-05-02T11:51:16.524Z,9
2023-05-02T11:53:44.748Z,7
2023-05-02T11:54:59.200Z,8
2023-05-02T11:56:13.050Z,9
2023-05-02T11:58:41.268Z,8
2023-05-02T11:59:55.487Z,8
2023-05-02T12:01:10.086Z,8
2023-05-02T12:02:23.789Z,8
2023-05-02T12:04:51.951Z,7
2023-05-02T12:06:06.237Z,7
2023-05-02T12:07:20.215Z,6
2023-05-02T12:09:48.507Z,6
2023-05-02T12:11:02.626Z,6
2023-05-02T12:12:16.753Z,5
2023-05-02T12:14:45.024Z,5
2023-05-02T12:15:59.217Z,5
2023-05-02T12:17:13.285Z,5
2023-05-02T12:19:41.521Z,4
2023-05-02T12:20:55.728Z,5
2023-05-02T12:22:09.860Z,5
2023-05-02T12:23:23.955Z,5
2023-05-02T12:25:52.216Z,5
2023-05-02T12:27:06.341Z,5
2023-05-02T12:28:20.464Z,6
2023-05-02T12:30:48.798Z,6
2023-05-02T12:32:03.146Z,7
2023-05-02T12:33:17.376Z,7
2023-05-02T12:35:45.283Z,7
2023-05-02T12:36:59.549Z,8
2023-05-02T12:38:13.539Z,8
2023-05-02T12:40:41.781Z,7
2023-05-02T12:41:55.969Z,7
2023-05-02T12:43:10.076Z,7
2023-05-02T12:44:24.258Z,7
2023-05-02T12:46:52.522Z,7
2023-05-02T12:48:06.694Z,7
2023-05-02T12:49:20.715Z,8
2023-05-02T12:51:49.019Z,7
2023-05-02T12:53:03.132Z,8
2023-05-02T12:54:17.360Z,7
2023-05-02T12:56:45.558Z,8
2023-05-02T12:57:59.754Z,8
2023-05-02T12:59:13.800Z,8
2023-05-02T13:01:42.277Z,8
2023-05-02T13:02:56.373Z,7
2023-05-02T13:04:10.571Z,8
2023-05-02T13:05:24.598Z,8
2023-05-02T13:07:52.743Z,8
2023-05-02T13:09:06.877Z,7
2023-05-02T13:10:21.001Z,7
2023-05-02T13:12:49.315Z,7
2023-05-02T13:14:03.404Z,6
2023-05-02T13:15:17.657Z,6
2023-05-02T13:17:45.985Z,5
2023-05-02T13:18:59.964Z,5
2023-05-02T13:20:14.131Z,5
2023-05-02T13:22:42.328Z,5
2023-05-02T13:23:56.467Z,5
2023-05-02T13:25:10.575Z,6
2023-05-02T13:26:24.811Z,6
2023-05-02T13:28:52.987Z,5
2023-05-02T13:30:09.073Z,6
2023-05-02T13:31:21.322Z,5
2023-05-02T13:33:49.531Z,7
2023-05-02T13:35:03.673Z,7
2023-05-02T13:36:17.909Z,7
2023-05-02T13:38:46.088Z,6
2023-05-02T13:40:00.526Z,7
2023-05-02T13:41:14.331Z,6
2023-05-02T13:43:42.609Z,6
2023-05-02T13:44:56.733Z,6
2023-05-02T13:46:10.954Z,6
2023-05-02T13:47:25.063Z,6
2023-05-02T13:49:53.294Z,6
2023-05-02T13:51:07.427Z,7
2023-05-02T13:52:21.588Z,7
2023-05-02T13:54:49.806Z,6
2023-05-02T13:56:03.949Z,7
2023-05-02T13:57:18.167Z,6
2023-05-02T13:59:46.431Z,6
2023-05-02T14:01:00.501Z,7
2023-05-02T14:02:14.705Z,7
2023-05-02T14:04:42.880Z,6
2023-05-02T14:05:57.012Z,5
2023-05-02T14:07:11.100Z,5
2023-05-02T14:08:25.301Z,6
2023-05-02T14:10:53.526Z,6
2023-05-02T14:12:07.715Z,6
2023-05-02T14:13:21.841Z,6
2023-05-02T14:15:50.158Z,6
2023-05-02T14:17:04.262Z,6
2023-05-02T14:18:18.394Z,5
2023-05-02T14:20:46.666Z,6
2023-05-02T14:22:00.783Z,6
2023-05-02T14:23:14.877Z,6
2023-05-02T14:25:43.231Z,6
2023-05-02T14:26:57.264Z,6
2023-05-02T14:28:11.473Z,6
2023-05-02T14:29:25.551Z,7
2023-05-02T14:31:53.832Z,6
2023-05-02T14:33:07.994Z,6
2023-05-02T14:34:22.121Z,7
2023-05-02T14:36:50.318Z,7
2023-05-02T14:38:04.497Z,7
2023-05-02T14:39:18.653Z,7
2023-05-02T14:41:47.229Z,7
2023-05-02T14:43:01.006Z,7
2023-05-02T14:44:15.110Z,7
2023-05-02T14:46:43.696Z,7
2023-05-02T14:47:57.583Z,7
2023-05-02T14:49:11.623Z,7
2023-05-02T14:51:39.909Z,6
2023-05-02T14:52:54.123Z,7
2023-05-02T14:54:08.210Z,6
2023-05-02T14:55:22.304Z,6
2023-05-02T14:57:50.663Z,5
2023-05-02T14:59:04.723Z,6
2023-05-02T15:00:18.881Z,5
2023-05-02T15:02:47.242Z,5
2023-05-02T15:04:05.848Z,7
2023-05-02T15:05:15.480Z,6
2023-05-02T15:07:43.768Z,5
2023-05-02T15:08:57.799Z,5
2023-05-02T15:10:11.956Z,5
2023-05-02T15:12:40.216Z,5
2023-05-02T15:13:55.883Z,5
2023-05-02T15:15:08.529Z,4
2023-05-02T15:18:50.907Z,6
2023-05-02T15:20:05.372Z,6
2023-05-02T15:21:19.111Z,6
2023-05-02T15:22:33.268Z,6
2023-05-02T15:23:47.513Z,6
2023-05-02T15:25:03.083Z,6
2023-05-02T15:26:15.651Z,6
2023-05-02T15:28:44.015Z,6
2023-05-02T15:29:58.049Z,6
2023-05-02T15:31:12.203Z,6
2023-05-02T15:33:40.435Z,5
2023-05-02T15:34:54.595Z,6
2023-05-02T15:36:08.762Z,5
2023-05-02T15:37:22.829Z,7
2023-05-02T15:39:51.096Z,6
2023-05-02T15:41:05.332Z,6
2023-05-02T15:42:19.468Z,6
2023-05-02T15:44:47.756Z,7
2023-05-02T15:46:01.883Z,6
2023-05-02T15:47:15.916Z,6
2023-05-02T15:49:44.198Z,7
2023-05-02T15:50:58.317Z,7
2023-05-02T15:52:12.462Z,7
2023-05-02T15:53:26.686Z,6
2023-05-02T15:54:41.095Z,7
2023-05-02T15:55:54.860Z,6
2023-05-02T15:57:08.994Z,6
2023-05-02T15:58:23.116Z,6
2023-05-02T16:00:51.387Z,6
2023-05-02T16:02:05.712Z,6
2023-05-02T16:03:19.909Z,5
2023-05-02T16:05:47.920Z,6
2023-05-02T16:07:02.051Z,6
2023-05-02T16:08:16.254Z,7
2023-05-02T16:10:44.426Z,7
2023-05-02T16:11:58.570Z,7
2023-05-02T16:13:12.721Z,7
2023-05-02T16:15:41.061Z,7
2023-05-02T16:16:55.143Z,7
2023-05-02T16:18:09.376Z,7
2023-05-02T16:19:23.364Z,7
2023-05-02T16:21:51.636Z,7
2023-05-02T16:23:05.868Z,7
2023-05-02T16:24:19.945Z,6
2023-05-02T16:26:48.185Z,6
2023-05-02T16:28:02.318Z,6
2023-05-02T16:29:16.475Z,7
2023-05-02T16:31:44.892Z,6
2023-05-02T16:32:58.912Z,7
2023-05-02T16:34:13.005Z,7
2023-05-02T16:36:41.241Z,6
2023-05-02T16:37:55.381Z,5
2023-05-02T16:39:09.592Z,6
2023-05-02T16:40:23.763Z,5
2023-05-02T16:42:51.903Z,6
2023-05-02T16:44:06.134Z,6
2023-05-02T16:45:20.225Z,5
2023-05-02T16:47:48.492Z,4
2023-05-02T16:49:02.608Z,5
2023-05-02T16:50:16.764Z,93
2023-05-02T16:52:44.965Z,5
2023-05-02T16:53:59.247Z,5
2023-05-02T16:55:13.259Z,4
2023-05-02T16:57:41.491Z,5
2023-05-02T16:58:55.989Z,10
2023-05-02T17:00:09.820Z,9
2023-05-02T17:01:24.065Z,4
2023-05-02T17:03:52.215Z,50
2023-05-02T17:05:06.375Z,6
2023-05-02T17:06:20.478Z,28
2023-05-02T17:08:48.794Z,4
2023-05-02T17:10:03.296Z,6
2023-05-02T17:11:17.058Z,4
2023-05-02T17:13:45.257Z,4
2023-05-02T17:14:59.365Z,4
2023-05-02T17:16:13.604Z,4
2023-05-02T17:18:41.790Z,4
2023-05-02T17:19:56.028Z,3
2023-05-02T17:21:10.146Z,3
2023-05-02T17:22:24.241Z,3
2023-05-02T17:24:52.466Z,7
2023-05-02T17:26:06.603Z,4
2023-05-02T17:27:20.728Z,3
2023-05-02T17:29:49.026Z,3
2023-05-02T17:31:03.173Z,3
2023-05-02T17:32:17.236Z,3
2023-05-02T17:34:45.513Z,3
2023-05-02T17:35:59.661Z,3
2023-05-02T17:37:13.803Z,3
2023-05-02T17:39:42.011Z,3
2023-05-02T17:40:56.175Z,3
2023-05-02T17:42:10.294Z,3
2023-05-02T17:43:24.538Z,3
2023-05-02T17:46:00.960Z,3
2023-05-02T17:47:15.051Z,3
2023-05-02T17:49:43.373Z,3
2023-05-02T17:50:57.450Z,3
2023-05-02T17:52:11.558Z,3
2023-05-02T17:54:39.858Z,3
2023-05-02T17:55:54.039Z,3
2023-05-02T17:57:08.126Z,3
2023-05-02T17:58:22.247Z,3
2023-05-02T18:00:50.495Z,3
2023-05-02T18:02:04.697Z,3
2023-05-02T18:03:18.889Z,3
2023-05-02T18:05:47.176Z,3
2023-05-02T18:07:02.507Z,3
2023-05-02T18:08:15.416Z,3
2023-05-02T18:10:43.808Z,3
2023-05-02T18:11:57.708Z,3
2023-05-02T18:13:11.854Z,3
2023-05-02T18:15:40.223Z,3
2023-05-02T18:16:54.357Z,3
2023-05-02T18:18:08.609Z,3
2023-05-02T18:19:22.493Z,3
2023-05-02T18:21:50.747Z,3
2023-05-02T18:23:04.934Z,2
2023-05-02T18:24:19.085Z,3
2023-05-02T18:26:47.349Z,3
2023-05-02T18:28:01.449Z,3
2023-05-02T18:29:15.621Z,3
2023-05-02T18:31:44.016Z,3
2023-05-02T18:32:58.050Z,3
2023-05-02T18:34:12.128Z,3
2023-05-02T18:36:40.351Z,3
2023-05-02T18:37:54.585Z,3
2023-05-02T18:39:08.960Z,3
2023-05-02T18:40:22.768Z,3
2023-05-02T18:42:51.021Z,3
2023-05-02T18:44:05.247Z,3
2023-05-02T18:45:19.399Z,3
2023-05-02T18:47:47.603Z,3
2023-05-02T18:49:01.716Z,3
2023-05-02T18:50:15.850Z,3
2023-05-02T18:52:44.209Z,3
2023-05-02T18:53:58.282Z,3
2023-05-02T18:55:12.369Z,3
2023-05-02T18:57:40.595Z,3
2023-05-02T18:58:54.827Z,3
2023-05-02T19:00:08.935Z,3
2023-05-02T19:01:23.177Z,3
2023-05-02T19:03:51.370Z,4
2023-05-02T19:05:05.491Z,4
2023-05-02T19:06:19.673Z,3
2023-05-02T19:08:47.921Z,4
2023-05-02T19:10:01.963Z,3
2023-05-02T19:11:16.208Z,3
2023-05-02T19:13:44.389Z,4
2023-05-02T19:14:58.507Z,3
2023-05-02T19:16:12.774Z,3
2023-05-02T19:18:40.874Z,4
2023-05-02T19:19:56.199Z,3
2023-05-02T19:21:09.493Z,3
2023-05-02T19:22:23.306Z,3
2023-05-02T19:24:51.540Z,4
2023-05-02T19:26:05.828Z,4
2023-05-02T19:27:19.865Z,4
2023-05-02T19:29:48.137Z,4
2023-05-02T19:31:02.222Z,4
2023-05-02T19:32:16.486Z,4
2023-05-02T19:34:44.611Z,4
2023-05-02T19:35:58.761Z,3
2023-05-02T19:37:12.887Z,4
2023-05-02T19:39:41.142Z,4
2023-05-02T19:40:55.315Z,4
2023-05-02T19:42:09.520Z,4
2023-05-02T19:43:23.574Z,4
2023-05-02T19:45:52.245Z,5
2023-05-02T19:47:05.968Z,4
2023-05-02T19:48:20.204Z,5
2023-05-02T19:50:48.378Z,5
2023-05-02T19:52:02.505Z,4
2023-05-02T19:53:16.672Z,4
2023-05-02T19:55:44.870Z,5
2023-05-02T19:56:59.084Z,5
2023-05-02T19:58:13.216Z,5
2023-05-02T20:00:41.430Z,8
2023-05-02T20:01:55.750Z,6
2023-05-02T20:03:09.780Z,7
2023-05-02T20:04:23.895Z,7
2023-05-02T20:06:52.193Z,10
2023-05-02T20:08:06.313Z,11
2023-05-02T20:09:20.348Z,12
2023-05-02T20:11:48.726Z,7
2023-05-02T20:13:02.778Z,8
2023-05-02T20:14:16.916Z,7
2023-05-02T20:16:45.248Z,7
2023-05-02T20:17:59.373Z,7
2023-05-02T20:19:13.442Z,7
2023-05-02T20:20:27.590Z,7
2023-05-02T20:21:41.703Z,7
2023-05-02T20:22:55.867Z,7
2023-05-02T20:24:09.991Z,7
2023-05-02T20:25:24.182Z,7
2023-05-02T20:27:52.361Z,7
2023-05-02T20:29:06.553Z,7
2023-05-02T20:30:20.595Z,7
2023-05-02T20:32:49.026Z,7
2023-05-02T20:34:03.050Z,7
2023-05-02T20:35:17.157Z,7
2023-05-02T20:37:45.431Z,7
2023-05-02T20:38:59.656Z,6
2023-05-02T20:40:13.705Z,7
2023-05-02T20:42:41.971Z,7
2023-05-02T20:43:56.080Z,7
2023-05-02T20:45:10.203Z,7
2023-05-02T20:46:24.459Z,7
2023-05-02T20:48:52.633Z,7
2023-05-02T20:50:06.810Z,7
2023-05-02T20:51:20.873Z,7
2023-05-02T20:53:49.172Z,6
2023-05-02T20:55:03.290Z,7
2023-05-02T20:56:17.487Z,7
2023-05-02T20:58:45.680Z,7
2023-05-02T20:59:59.910Z,7
2023-05-02T21:01:14.062Z,7
2023-05-02T21:03:42.272Z,7
2023-05-02T21:04:56.438Z,7
2023-05-02T21:06:10.517Z,6
2023-05-02T21:07:24.938Z,7
2023-05-02T21:09:52.883Z,7
2023-05-02T21:11:07.121Z,7
2023-05-02T21:12:21.172Z,7
2023-05-02T21:14:49.662Z,7
2023-05-02T21:16:03.601Z,7
2023-05-02T21:17:17.682Z,7
2023-05-02T21:19:45.970Z,8
2023-05-02T21:21:00.131Z,7
2023-05-02T21:22:14.214Z,7
2023-05-02T21:24:42.479Z,7
2023-05-02T21:25:56.625Z,7
2023-05-02T21:27:10.732Z,7
2023-05-02T21:28:24.970Z,8
2023-05-02T21:30:53.144Z,7
2023-05-02T21:32:07.452Z,7
2023-05-02T21:33:21.435Z,7
2023-05-02T21:35:50.153Z,7
2023-05-02T21:37:03.838Z,7
2023-05-02T21:38:17.964Z,7
2023-05-02T21:40:46.213Z,7
2023-05-02T21:42:00.374Z,7
2023-05-02T21:43:14.488Z,7
2023-05-02T21:45:42.763Z,8
2023-05-02T21:46:56.931Z,7
2023-05-02T21:48:11.049Z,7
2023-05-02T21:49:25.153Z,7
2023-05-02T21:51:53.454Z,7
2023-05-02T21:53:07.712Z,7
2023-05-02T21:54:21.690Z,7
2023-05-02T21:56:50.021Z,7
2023-05-02T21:58:04.093Z,8
2023-05-02T21:59:18.307Z,8
2023-05-02T22:01:46.492Z,8
2023-05-02T22:03:00.658Z,7
2023-05-02T22:04:14.783Z,8
2023-05-02T22:05:29.036Z,8
2023-05-02T22:06:43.119Z,8
2023-05-02T22:07:57.148Z,8
2023-05-02T22:09:11.263Z,8
2023-05-02T22:10:25.442Z,8
2023-05-02T22:12:53.706Z,7
2023-05-02T22:14:07.857Z,8
2023-05-02T22:15:21.938Z,8
2023-05-02T22:17:50.244Z,8
2023-05-02T22:19:04.328Z,8
2023-05-02T22:20:18.618Z,7
2023-05-02T22:22:46.822Z,8
2023-05-02T22:24:00.833Z,7
2023-05-02T22:25:15.096Z,8
2023-05-02T22:27:43.281Z,7
2023-05-02T22:28:57.435Z,8
2023-05-02T22:30:11.532Z,8
2023-05-02T22:31:25.711Z,7
2023-05-02T22:33:53.978Z,7
2023-05-02T22:35:08.117Z,8
2023-05-02T22:36:22.209Z,7
2023-05-02T22:38:50.444Z,8
2023-05-02T22:40:05.038Z,7
2023-05-02T22:41:18.801Z,7
2023-05-02T22:43:47.069Z,7
2023-05-02T22:45:01.111Z,8
2023-05-02T22:46:15.308Z,7
2023-05-02T22:48:43.676Z,8
2023-05-02T22:49:57.657Z,7
2023-05-02T22:51:11.785Z,8
2023-05-02T22:53:40.085Z,7
2023-05-02T22:54:54.311Z,8
2023-05-02T22:56:08.338Z,7
2023-05-02T22:57:22.497Z,7
2023-05-02T22:59:50.736Z,8
2023-05-02T23:01:04.943Z,7
2023-05-02T23:02:19.050Z,8
2023-05-02T23:04:47.282Z,8
2023-05-02T23:06:01.714Z,7
2023-05-02T23:07:15.592Z,7
2023-05-02T23:09:44.257Z,8
2023-05-02T23:10:57.915Z,7
2023-05-02T23:12:12.374Z,8
2023-05-02T23:13:26.283Z,8
2023-05-02T23:15:54.593Z,8
2023-05-02T23:17:08.608Z,8
2023-05-02T23:18:22.730Z,8